Flight Track Log - Related Links

Times and Time Zones

All times are in EDT time to prevent confusion due to time zone crossing. See the SWA534 flight status page for this flight to view local times or setup timezone preferences in your user account.

Time Position Orientation Groundspeed Altitude Reporting Facility
EDT Latitude Longitude Course Direction KTS MPH feet Rate Location/Type
Sat 12:46:56 AM 36.0714 -115.2361 264° West 224 258 5,000  Level Los Angeles Center
Sat 12:47:16 AM 36.0631 -115.2508 235° Southwest 229 264 5,600 1,745 Climbing Los Angeles Center
Sat 12:47:51 AM 36.0244 -115.2783 210° Southwest 268 308 6,600 1,475 Climbing Los Angeles Center
Sat 12:48:17 AM 35.9978 -115.2897 199° South 254 292 7,100 1,227 Climbing Los Angeles Center
Sat 12:49:19 AM 35.9197 -115.3092 191° South 272 313 8,400 1,854 Climbing Los Angeles Center
Sat 12:50:20 AM 35.8372 -115.3139 183° South 287 330 10,900 2,656 Climbing Los Angeles Center
Sat 12:51:21 AM 35.7425 -115.3156 181° South 325 374 13,800 3,098 Climbing Los Angeles Center
Sat 12:52:22 AM 35.6508 -115.3439 194° South 336 387 17,200 2,656 Climbing Los Angeles Center
Sat 12:53:23 AM 35.5561 -115.3714 193° South 343 395 19,200 2,195 Climbing Los Angeles Center
Sat 12:54:25 AM 35.4539 -115.3997 193° South 365 420 21,700 2,439 Climbing Los Angeles Center
Sat 12:55:26 AM 35.3303 -115.4358 193° South 378 435 24,200 2,066 Climbing Los Angeles Center
Sat 12:56:27 AM 35.2208 -115.4667 193° South 398 458 25,900 1,525 Climbing Los Angeles Center
Sat 12:57:28 AM 35.1433 -115.4889 193° South 407 468 27,300 1,033 Climbing Los Angeles Center
Sat 12:58:29 AM 35.0075 -115.5269 193° South 415 478 28,000 344 Climbing Los Angeles Center
Sat 12:59:30 AM 34.8769 -115.5642 193° South 429 494 28,000  Level Los Angeles Center
Sat 01:00:31 AM 34.7719 -115.5942 193° South 432 497 28,000  Level Los Angeles Center
Sat 01:01:32 AM 34.6556 -115.6267 193° South 430 495 28,000  Level Los Angeles Center
Sat 01:02:33 AM 34.5422 -115.6578 193° South 422 486 28,000  Level Los Angeles Center
Sat 01:03:34 AM 34.4056 -115.6953 193° South 419 482 28,000  Level Los Angeles Center
Sat 01:04:35 AM 34.3036 -115.7253 194° South 419 482 28,000  Level Los Angeles Center
Sat 01:05:37 AM 34.1911 -115.7547 192° South 414 476 28,000 -49 Level Los Angeles Center
Sat 01:06:38 AM 34.0789 -115.7881 194° South 414 476 27,900 -49 Descending Los Angeles Center
Sat 01:07:39 AM 33.9661 -115.8183 193° South 416 479 27,900 49 Level Los Angeles Center
Sat 01:08:40 AM 33.8317 -115.8558 193° South 412 474 28,000 49 Climbing Los Angeles Center
Sat 01:09:41 AM 33.7186 -115.8878 193° South 415 478 28,000 -984 Level Los Angeles Center
Sat 01:10:42 AM 33.6061 -115.9169 192° South 415 478 26,000 -2,016 Descending Los Angeles Center
Sat 01:11:43 AM 33.5025 -115.9589 199° South 400 460 23,900 -1,328 Descending Los Angeles Center
Sat 01:12:44 AM 33.4206 -116.0378 219° Southwest 381 438 23,300 -1,388 Descending Los Angeles Center
Sat 01:13:57 AM 33.3258 -116.1303 219° Southwest 367 422 20,800 -2,060 Descending Los Angeles Center
Sat 01:14:58 AM 33.2497 -116.2058 220° Southwest 359 413 18,700 -2,066 Descending Los Angeles Center
Sat 01:15:59 AM 33.1778 -116.2767 219° Southwest 342 394 16,600 -2,016 Descending Los Angeles Center
Sat 01:17:00 AM 33.1053 -116.3464 219° Southwest 337 388 14,600 -2,066 Descending Los Angeles Center
Sat 01:18:01 AM 33.0267 -116.4236 219° Southwest 330 380 12,400 -1,279 Descending Los Angeles Center
Sat 01:19:02 AM 32.9481 -116.4772 210° Southwest 326 375 12,000 -787 Descending Los Angeles Center
Sat 01:20:03 AM 32.8669 -116.5244 206° Southwest 325 374 10,800 -1,131 Descending Los Angeles Center
Sat 01:21:04 AM 32.8125 -116.5981 229° Southwest 311 358 9,700 -1,230 Descending Los Angeles Center
Sat 01:22:05 AM 32.7722 -116.6817 240° Southwest 297 342 8,300 -1,426 Descending Los Angeles Center
Sat 01:23:06 AM 32.7331 -116.7647 241° Southwest 293 337 6,800 -1,339 Descending Los Angeles Center
Sat 01:24:06 AM 32.7025 -116.8494 247° West 286 329 5,600 -1,289 Descending Los Angeles Center
Sat 01:25:07 AM 32.6753 -116.9289 248° West 273 314 4,200 -1,033 Descending Los Angeles Center
Sat 01:26:08 AM 32.6894 -117.0075 282° West 258 297 3,500 -738 Descending Los Angeles Center
Sat 01:27:09 AM 32.7042 -117.0678 286° West 220 253 2,700 -1,131 Descending Los Angeles Center
Sat 01:28:10 AM 32.7164 -117.1172 286° West 183 211 1,200 -1,131 Descending Los Angeles Center
Sat 01:29:11 AM 32.7278 -117.1617 287° West 160 184 400 11,213 Descending Los Angeles Center
Sat 01:30:12 AM 32.7361 -117.1983 285° West 118 136 24,000 23,213 Climbing Los Angeles Center

Login

Don't have an account? Register now (free) for customized features, flight alerts, and more!